sensor_id;sensor_type;location;lat;lon;timestamp;temperature;humidity
2861;DHT22;1438;50.922;6.704;2022-12-07T00:00:54;4.70;99.90
2861;DHT22;1438;50.922;6.704;2022-12-07T00:03:19;4.70;99.90
2861;DHT22;1438;50.922;6.704;2022-12-07T00:05:45;4.80;99.90
2861;DHT22;1438;50.922;6.704;2022-12-07T00:08:11;4.70;99.90
2861;DHT22;1438;50.922;6.704;2022-12-07T00:10:36;4.70;99.90
2861;DHT22;1438;50.922;6.704;2022-12-07T00:13:02;4.70;99.90
2861;DHT22;1438;50.922;6.704;2022-12-07T00:15:28;4.70;99.90
2861;DHT22;1438;50.922;6.704;2022-12-07T00:17:53;4.70;99.90
2861;DHT22;1438;50.922;6.704;2022-12-07T00:20:19;4.70;99.90
2861;DHT22;1438;50.922;6.704;2022-12-07T00:22:44;4.70;99.90
2861;DHT22;1438;50.922;6.704;2022-12-07T00:25:10;4.70;99.90
2861;DHT22;1438;50.922;6.704;2022-12-07T00:27:35;4.70;99.90
2861;DHT22;1438;50.922;6.704;2022-12-07T00:30:01;4.80;99.90
2861;DHT22;1438;50.922;6.704;2022-12-07T00:32:27;4.70;99.90
2861;DHT22;1438;50.922;6.704;2022-12-07T00:34:52;4.80;99.90
2861;DHT22;1438;50.922;6.704;2022-12-07T00:37:18;4.80;99.90
2861;DHT22;1438;50.922;6.704;2022-12-07T00:39:43;4.80;99.90
2861;DHT22;1438;50.922;6.704;2022-12-07T00:42:10;4.80;99.90
2861;DHT22;1438;50.922;6.704;2022-12-07T00:44:36;4.80;99.90
2861;DHT22;1438;50.922;6.704;2022-12-07T00:47:01;4.70;99.90
2861;DHT22;1438;50.922;6.704;2022-12-07T00:49:27;4.70;99.90
2861;DHT22;1438;50.922;6.704;2022-12-07T00:51:53;4.80;99.90
2861;DHT22;1438;50.922;6.704;2022-12-07T00:54:18;4.70;99.90
2861;DHT22;1438;50.922;6.704;2022-12-07T00:56:44;4.80;99.90
2861;DHT22;1438;50.922;6.704;2022-12-07T00:59:12;4.80;99.90
2861;DHT22;1438;50.922;6.704;2022-12-07T01:01:39;4.80;99.90
2861;DHT22;1438;50.922;6.704;2022-12-07T01:04:05;4.80;99.90
2861;DHT22;1438;50.922;6.704;2022-12-07T01:06:31;4.80;99.90
2861;DHT22;1438;50.922;6.704;2022-12-07T01:08:57;4.80;99.90
2861;DHT22;1438;50.922;6.704;2022-12-07T01:11:24;4.80;99.90
2861;DHT22;1438;50.922;6.704;2022-12-07T01:13:51;4.90;99.90
2861;DHT22;1438;50.922;6.704;2022-12-07T01:16:18;4.80;99.90
2861;DHT22;1438;50.922;6.704;2022-12-07T01:18:47;4.80;99.90
2861;DHT22;1438;50.922;6.704;2022-12-07T01:21:19;4.80;99.90
2861;DHT22;1438;50.922;6.704;2022-12-07T01:23:48;4.90;99.90
2861;DHT22;1438;50.922;6.704;2022-12-07T01:26:16;4.80;99.90
2861;DHT22;1438;50.922;6.704;2022-12-07T01:28:43;4.80;99.90
2861;DHT22;1438;50.922;6.704;2022-12-07T01:31:14;4.80;99.90
2861;DHT22;1438;50.922;6.704;2022-12-07T01:33:45;4.80;99.90
2861;DHT22;1438;50.922;6.704;2022-12-07T01:36:19;4.80;99.90
2861;DHT22;1438;50.922;6.704;2022-12-07T01:38:46;4.80;99.90
2861;DHT22;1438;50.922;6.704;2022-12-07T01:41:12;4.80;99.90
2861;DHT22;1438;50.922;6.704;2022-12-07T01:44:09;4.80;99.90
2861;DHT22;1438;50.922;6.704;2022-12-07T01:46:36;4.80;99.90
2861;DHT22;1438;50.922;6.704;2022-12-07T01:49:06;4.70;99.90
2861;DHT22;1438;50.922;6.704;2022-12-07T01:51:33;4.70;99.90
2861;DHT22;1438;50.922;6.704;2022-12-07T01:54:00;4.80;99.90
2861;DHT22;1438;50.922;6.704;2022-12-07T01:56:27;4.80;99.90
2861;DHT22;1438;50.922;6.704;2022-12-07T01:58:55;4.80;99.90
2861;DHT22;1438;50.922;6.704;2022-12-07T02:01:21;4.80;99.90
2861;DHT22;1438;50.922;6.704;2022-12-07T02:03:48;4.80;99.90
2861;DHT22;1438;50.922;6.704;2022-12-07T02:06:17;4.80;99.90
2861;DHT22;1438;50.922;6.704;2022-12-07T02:08:44;4.80;99.90
2861;DHT22;1438;50.922;6.704;2022-12-07T02:11:11;4.80;99.90
2861;DHT22;1438;50.922;6.704;2022-12-07T02:13:38;4.80;99.90
2861;DHT22;1438;50.922;6.704;2022-12-07T02:21:51;4.70;99.90
2861;DHT22;1438;50.922;6.704;2022-12-07T02:30:10;4.70;99.90
2861;DHT22;1438;50.922;6.704;2022-12-07T02:32:59;4.80;99.90
2861;DHT22;1438;50.922;6.704;2022-12-07T02:35:46;4.70;99.90
2861;DHT22;1438;50.922;6.704;2022-12-07T02:40:54;4.70;99.90
2861;DHT22;1438;50.922;6.704;2022-12-07T02:43:26;4.70;99.90
2861;DHT22;1438;50.922;6.704;2022-12-07T02:46:00;4.70;99.90
2861;DHT22;1438;50.922;6.704;2022-12-07T02:48:27;4.70;99.90
2861;DHT22;1438;50.922;6.704;2022-12-07T02:50:54;4.70;99.90
2861;DHT22;1438;50.922;6.704;2022-12-07T02:53:33;4.70;99.90
2861;DHT22;1438;50.922;6.704;2022-12-07T03:01:44;4.70;99.90
2861;DHT22;1438;50.922;6.704;2022-12-07T03:10:55;4.70;99.90
2861;DHT22;1438;50.922;6.704;2022-12-07T03:16:05;4.70;99.90
2861;DHT22;1438;50.922;6.704;2022-12-07T03:18:42;4.70;99.90
2861;DHT22;1438;50.922;6.704;2022-12-07T03:21:14;4.70;99.90
2861;DHT22;1438;50.922;6.704;2022-12-07T03:23:42;4.70;99.90
2861;DHT22;1438;50.922;6.704;2022-12-07T03:26:11;4.70;99.90
2861;DHT22;1438;50.922;6.704;2022-12-07T03:28:44;4.60;99.90
2861;DHT22;1438;50.922;6.704;2022-12-07T03:31:12;4.70;99.90
2861;DHT22;1438;50.922;6.704;2022-12-07T03:36:26;4.70;99.90
2861;DHT22;1438;50.922;6.704;2022-12-07T03:39:26;4.70;99.90
2861;DHT22;1438;50.922;6.704;2022-12-07T03:41:54;4.70;99.90
2861;DHT22;1438;50.922;6.704;2022-12-07T03:44:20;4.70;99.90
2861;DHT22;1438;50.922;6.704;2022-12-07T03:47:00;4.60;99.90
2861;DHT22;1438;50.922;6.704;2022-12-07T03:55:00;4.70;99.90
2861;DHT22;1438;50.922;6.704;2022-12-07T03:57:28;4.70;99.90
2861;DHT22;1438;50.922;6.704;2022-12-07T03:59:56;4.60;99.90
2861;DHT22;1438;50.922;6.704;2022-12-07T04:02:24;4.60;99.90
2861;DHT22;1438;50.922;6.704;2022-12-07T04:04:50;4.60;99.90
2861;DHT22;1438;50.922;6.704;2022-12-07T04:07:16;4.60;99.90
2861;DHT22;1438;50.922;6.704;2022-12-07T04:09:41;4.60;99.90
2861;DHT22;1438;50.922;6.704;2022-12-07T04:12:07;4.60;99.90
2861;DHT22;1438;50.922;6.704;2022-12-07T04:14:33;4.50;99.90
2861;DHT22;1438;50.922;6.704;2022-12-07T04:16:59;4.60;99.90
2861;DHT22;1438;50.922;6.704;2022-12-07T04:19:27;4.50;99.90
2861;DHT22;1438;50.922;6.704;2022-12-07T04:21:54;4.50;99.90
2861;DHT22;1438;50.922;6.704;2022-12-07T04:24:20;4.50;99.90
2861;DHT22;1438;50.922;6.704;2022-12-07T04:26:46;4.60;99.90
2861;DHT22;1438;50.922;6.704;2022-12-07T04:29:13;4.60;99.90
2861;DHT22;1438;50.922;6.704;2022-12-07T04:31:39;4.60;99.90
2861;DHT22;1438;50.922;6.704;2022-12-07T04:34:06;4.60;99.90
2861;DHT22;1438;50.922;6.704;2022-12-07T04:36:32;4.60;99.90
2861;DHT22;1438;50.922;6.704;2022-12-07T04:38:58;4.60;99.90
2861;DHT22;1438;50.922;6.704;2022-12-07T04:41:24;4.60;99.90
2861;DHT22;1438;50.922;6.704;2022-12-07T04:43:58;4.60;99.90
2861;DHT22;1438;50.922;6.704;2022-12-07T04:46:25;4.50;99.90
2861;DHT22;1438;50.922;6.704;2022-12-07T04:48:51;4.50;99.90
2861;DHT22;1438;50.922;6.704;2022-12-07T04:51:23;4.50;99.90
2861;DHT22;1438;50.922;6.704;2022-12-07T04:53:49;4.40;99.90
2861;DHT22;1438;50.922;6.704;2022-12-07T04:56:16;4.40;99.90
2861;DHT22;1438;50.922;6.704;2022-12-07T04:58:43;4.30;99.90
2861;DHT22;1438;50.922;6.704;2022-12-07T05:01:09;4.30;99.90
2861;DHT22;1438;50.922;6.704;2022-12-07T05:03:36;4.20;99.90
2861;DHT22;1438;50.922;6.704;2022-12-07T05:06:01;4.20;99.90
2861;DHT22;1438;50.922;6.704;2022-12-07T05:08:27;4.30;99.90
2861;DHT22;1438;50.922;6.704;2022-12-07T05:10:53;4.30;99.90
2861;DHT22;1438;50.922;6.704;2022-12-07T05:13:18;4.30;99.90
2861;DHT22;1438;50.922;6.704;2022-12-07T05:15:44;4.30;99.90
2861;DHT22;1438;50.922;6.704;2022-12-07T05:18:11;4.30;99.90
2861;DHT22;1438;50.922;6.704;2022-12-07T05:20:41;4.30;99.90
2861;DHT22;1438;50.922;6.704;2022-12-07T05:23:07;4.30;99.90
2861;DHT22;1438;50.922;6.704;2022-12-07T05:25:32;4.30;99.90
2861;DHT22;1438;50.922;6.704;2022-12-07T05:27:58;4.30;99.90
2861;DHT22;1438;50.922;6.704;2022-12-07T05:30:24;4.30;99.90
2861;DHT22;1438;50.922;6.704;2022-12-07T05:32:50;4.20;99.90
2861;DHT22;1438;50.922;6.704;2022-12-07T05:35:17;4.20;99.90
2861;DHT22;1438;50.922;6.704;2022-12-07T05:37:42;4.30;99.90
2861;DHT22;1438;50.922;6.704;2022-12-07T05:40:09;4.30;99.90
2861;DHT22;1438;50.922;6.704;2022-12-07T05:42:35;4.20;99.90
2861;DHT22;1438;50.922;6.704;2022-12-07T05:45:00;4.30;99.90
2861;DHT22;1438;50.922;6.704;2022-12-07T05:47:26;4.20;99.90
2861;DHT22;1438;50.922;6.704;2022-12-07T05:49:52;4.20;99.90
2861;DHT22;1438;50.922;6.704;2022-12-07T05:52:17;4.10;99.90
2861;DHT22;1438;50.922;6.704;2022-12-07T05:54:43;4.20;99.90
2861;DHT22;1438;50.922;6.704;2022-12-07T05:57:08;4.20;99.90
2861;DHT22;1438;50.922;6.704;2022-12-07T05:59:34;4.20;99.90
2861;DHT22;1438;50.922;6.704;2022-12-07T06:02:06;4.10;99.90
2861;DHT22;1438;50.922;6.704;2022-12-07T06:04:35;4.10;99.90
2861;DHT22;1438;50.922;6.704;2022-12-07T06:07:00;4.10;99.90
2861;DHT22;1438;50.922;6.704;2022-12-07T06:09:27;4.10;99.90
2861;DHT22;1438;50.922;6.704;2022-12-07T06:11:54;4.00;99.90
2861;DHT22;1438;50.922;6.704;2022-12-07T06:14:38;4.00;99.90
2861;DHT22;1438;50.922;6.704;2022-12-07T06:17:03;4.10;99.90
2861;DHT22;1438;50.922;6.704;2022-12-07T06:19:29;4.00;99.90
2861;DHT22;1438;50.922;6.704;2022-12-07T06:21:55;4.00;99.90
2861;DHT22;1438;50.922;6.704;2022-12-07T06:24:21;4.00;99.90
2861;DHT22;1438;50.922;6.704;2022-12-07T06:26:47;4.10;99.90
2861;DHT22;1438;50.922;6.704;2022-12-07T06:29:12;4.10;99.90
2861;DHT22;1438;50.922;6.704;2022-12-07T06:31:38;4.10;99.90
2861;DHT22;1438;50.922;6.704;2022-12-07T06:34:07;4.10;99.90
2861;DHT22;1438;50.922;6.704;2022-12-07T06:36:33;4.20;99.90
2861;DHT22;1438;50.922;6.704;2022-12-07T06:38:59;4.10;99.90
2861;DHT22;1438;50.922;6.704;2022-12-07T06:41:25;4.20;99.90
2861;DHT22;1438;50.922;6.704;2022-12-07T06:43:50;4.10;99.90
2861;DHT22;1438;50.922;6.704;2022-12-07T06:46:16;4.10;99.90
2861;DHT22;1438;50.922;6.704;2022-12-07T06:48:42;4.20;99.90
2861;DHT22;1438;50.922;6.704;2022-12-07T06:51:09;4.20;99.90
2861;DHT22;1438;50.922;6.704;2022-12-07T06:53:35;4.10;99.90
2861;DHT22;1438;50.922;6.704;2022-12-07T06:56:01;4.20;99.90
2861;DHT22;1438;50.922;6.704;2022-12-07T06:58:27;4.10;99.90
2861;DHT22;1438;50.922;6.704;2022-12-07T07:00:53;4.20;99.90
2861;DHT22;1438;50.922;6.704;2022-12-07T07:03:19;4.20;99.90
2861;DHT22;1438;50.922;6.704;2022-12-07T07:05:45;4.20;99.90
2861;DHT22;1438;50.922;6.704;2022-12-07T07:08:11;4.20;99.90
2861;DHT22;1438;50.922;6.704;2022-12-07T07:10:37;4.20;99.90
2861;DHT22;1438;50.922;6.704;2022-12-07T07:13:03;4.10;99.90
2861;DHT22;1438;50.922;6.704;2022-12-07T07:15:29;4.10;99.90
2861;DHT22;1438;50.922;6.704;2022-12-07T07:17:54;4.10;99.90
2861;DHT22;1438;50.922;6.704;2022-12-07T07:20:20;4.20;99.90
2861;DHT22;1438;50.922;6.704;2022-12-07T07:22:46;4.20;99.90
2861;DHT22;1438;50.922;6.704;2022-12-07T07:25:12;4.10;99.90
2861;DHT22;1438;50.922;6.704;2022-12-07T07:27:37;4.20;99.90
2861;DHT22;1438;50.922;6.704;2022-12-07T07:30:04;4.10;99.90
2861;DHT22;1438;50.922;6.704;2022-12-07T07:32:30;4.10;99.90
2861;DHT22;1438;50.922;6.704;2022-12-07T07:34:56;4.20;99.90
2861;DHT22;1438;50.922;6.704;2022-12-07T07:37:21;4.10;99.90
2861;DHT22;1438;50.922;6.704;2022-12-07T07:39:47;4.10;99.90
2861;DHT22;1438;50.922;6.704;2022-12-07T07:42:12;4.10;99.90
2861;DHT22;1438;50.922;6.704;2022-12-07T07:44:38;4.10;99.90
2861;DHT22;1438;50.922;6.704;2022-12-07T07:47:04;4.00;99.90
2861;DHT22;1438;50.922;6.704;2022-12-07T07:49:29;4.00;99.90
2861;DHT22;1438;50.922;6.704;2022-12-07T07:51:55;3.90;99.90
2861;DHT22;1438;50.922;6.704;2022-12-07T07:54:20;3.90;99.90
2861;DHT22;1438;50.922;6.704;2022-12-07T07:56:46;3.90;99.90
2861;DHT22;1438;50.922;6.704;2022-12-07T07:59:12;3.90;99.90
2861;DHT22;1438;50.922;6.704;2022-12-07T08:01:37;3.90;99.90
2861;DHT22;1438;50.922;6.704;2022-12-07T08:04:03;3.90;99.90
2861;DHT22;1438;50.922;6.704;2022-12-07T08:06:28;3.90;99.90
2861;DHT22;1438;50.922;6.704;2022-12-07T08:08:54;3.90;99.90
2861;DHT22;1438;50.922;6.704;2022-12-07T08:11:20;3.90;99.90
2861;DHT22;1438;50.922;6.704;2022-12-07T08:13:46;4.00;99.90
2861;DHT22;1438;50.922;6.704;2022-12-07T08:16:12;4.10;99.90
2861;DHT22;1438;50.922;6.704;2022-12-07T08:18:39;4.10;99.90
2861;DHT22;1438;50.922;6.704;2022-12-07T08:21:06;4.20;99.90
2861;DHT22;1438;50.922;6.704;2022-12-07T08:23:33;4.10;99.90
2861;DHT22;1438;50.922;6.704;2022-12-07T08:26:10;4.10;99.90
2861;DHT22;1438;50.922;6.704;2022-12-07T08:28:36;4.20;99.90
2861;DHT22;1438;50.922;6.704;2022-12-07T08:31:11;4.30;99.90
2861;DHT22;1438;50.922;6.704;2022-12-07T08:33:38;4.20;99.90
2861;DHT22;1438;50.922;6.704;2022-12-07T08:36:07;4.40;99.90
2861;DHT22;1438;50.922;6.704;2022-12-07T08:38:34;4.40;99.90
2861;DHT22;1438;50.922;6.704;2022-12-07T08:41:00;4.50;99.90
2861;DHT22;1438;50.922;6.704;2022-12-07T08:43:26;4.50;99.90
2861;DHT22;1438;50.922;6.704;2022-12-07T08:46:09;4.70;99.90
2861;DHT22;1438;50.922;6.704;2022-12-07T08:48:40;4.70;99.90
2861;DHT22;1438;50.922;6.704;2022-12-07T08:51:08;4.60;99.90
2861;DHT22;1438;50.922;6.704;2022-12-07T08:53:35;4.70;99.90
2861;DHT22;1438;50.922;6.704;2022-12-07T08:56:02;4.70;99.90
2861;DHT22;1438;50.922;6.704;2022-12-07T08:58:28;4.70;99.90
2861;DHT22;1438;50.922;6.704;2022-12-07T09:00:53;4.80;99.90
2861;DHT22;1438;50.922;6.704;2022-12-07T09:03:19;4.90;99.90
2861;DHT22;1438;50.922;6.704;2022-12-07T09:05:45;5.00;99.90
2861;DHT22;1438;50.922;6.704;2022-12-07T09:08:10;5.00;99.90
2861;DHT22;1438;50.922;6.704;2022-12-07T09:10:36;5.00;99.90
2861;DHT22;1438;50.922;6.704;2022-12-07T09:13:02;5.00;99.90
2861;DHT22;1438;50.922;6.704;2022-12-07T09:15:28;5.20;99.90
2861;DHT22;1438;50.922;6.704;2022-12-07T09:17:54;5.30;99.90
2861;DHT22;1438;50.922;6.704;2022-12-07T09:20:20;5.40;99.90
2861;DHT22;1438;50.922;6.704;2022-12-07T09:22:46;5.50;99.90
2861;DHT22;1438;50.922;6.704;2022-12-07T09:25:11;5.40;99.90
2861;DHT22;1438;50.922;6.704;2022-12-07T09:27:37;5.40;99.90
2861;DHT22;1438;50.922;6.704;2022-12-07T09:30:04;5.40;99.90
2861;DHT22;1438;50.922;6.704;2022-12-07T09:32:30;5.40;99.90
2861;DHT22;1438;50.922;6.704;2022-12-07T09:34:55;5.40;99.90
2861;DHT22;1438;50.922;6.704;2022-12-07T09:37:21;5.40;99.90
2861;DHT22;1438;50.922;6.704;2022-12-07T09:39:47;5.50;99.90
2861;DHT22;1438;50.922;6.704;2022-12-07T09:42:35;5.50;99.90
2861;DHT22;1438;50.922;6.704;2022-12-07T09:45:02;5.50;99.90
2861;DHT22;1438;50.922;6.704;2022-12-07T09:47:28;5.50;99.90
2861;DHT22;1438;50.922;6.704;2022-12-07T09:50:04;5.50;99.90
2861;DHT22;1438;50.922;6.704;2022-12-07T09:52:30;5.50;99.90
2861;DHT22;1438;50.922;6.704;2022-12-07T09:54:57;5.40;99.90
2861;DHT22;1438;50.922;6.704;2022-12-07T09:57:31;5.50;99.90
2861;DHT22;1438;50.922;6.704;2022-12-07T10:00:05;5.60;99.90
2861;DHT22;1438;50.922;6.704;2022-12-07T10:02:40;5.60;99.90
2861;DHT22;1438;50.922;6.704;2022-12-07T10:05:15;5.60;99.90
2861;DHT22;1438;50.922;6.704;2022-12-07T10:07:42;5.60;99.90
2861;DHT22;1438;50.922;6.704;2022-12-07T10:10:15;5.80;99.90
2861;DHT22;1438;50.922;6.704;2022-12-07T10:13:03;5.90;99.90
2861;DHT22;1438;50.922;6.704;2022-12-07T10:23:35;6.10;99.90
2861;DHT22;1438;50.922;6.704;2022-12-07T10:26:40;6.20;99.90
2861;DHT22;1438;50.922;6.704;2022-12-07T10:31:39;6.40;99.90
2861;DHT22;1438;50.922;6.704;2022-12-07T10:34:37;6.40;99.90
2861;DHT22;1438;50.922;6.704;2022-12-07T10:39:45;6.50;99.90
2861;DHT22;1438;50.922;6.704;2022-12-07T10:42:22;6.60;99.90
2861;DHT22;1438;50.922;6.704;2022-12-07T10:44:50;6.60;99.90
2861;DHT22;1438;50.922;6.704;2022-12-07T10:47:27;6.60;99.90
2861;DHT22;1438;50.922;6.704;2022-12-07T10:50:29;6.80;99.90
2861;DHT22;1438;50.922;6.704;2022-12-07T11:03:46;7.90;99.90
2861;DHT22;1438;50.922;6.704;2022-12-07T11:11:59;8.20;99.90
2861;DHT22;1438;50.922;6.704;2022-12-07T11:14:40;7.80;99.90
2861;DHT22;1438;50.922;6.704;2022-12-07T11:17:17;7.80;99.90
2861;DHT22;1438;50.922;6.704;2022-12-07T11:20:05;7.90;99.90
2861;DHT22;1438;50.922;6.704;2022-12-07T11:23:21;7.80;99.90
2861;DHT22;1438;50.922;6.704;2022-12-07T11:28:09;7.80;99.90
2861;DHT22;1438;50.922;6.704;2022-12-07T11:36:41;6.90;99.90
2861;DHT22;1438;50.922;6.704;2022-12-07T11:41:52;6.70;99.90
2861;DHT22;1438;50.922;6.704;2022-12-07T11:47:20;6.80;99.90
2861;DHT22;1438;50.922;6.704;2022-12-07T11:49:56;6.80;99.90
2861;DHT22;1438;50.922;6.704;2022-12-07T12:04:22;6.40;99.90
2861;DHT22;1438;50.922;6.704;2022-12-07T12:06:50;6.30;99.90
2861;DHT22;1438;50.922;6.704;2022-12-07T12:09:31;6.30;99.90
2861;DHT22;1438;50.922;6.704;2022-12-07T12:12:25;6.30;99.90
2861;DHT22;1438;50.922;6.704;2022-12-07T12:15:03;6.30;99.90
2861;DHT22;1438;50.922;6.704;2022-12-07T12:20:28;6.20;99.90
2861;DHT22;1438;50.922;6.704;2022-12-07T12:23:19;6.20;99.90
2861;DHT22;1438;50.922;6.704;2022-12-07T12:25:54;6.10;99.90
2861;DHT22;1438;50.922;6.704;2022-12-07T12:28:38;6.10;99.90
2861;DHT22;1438;50.922;6.704;2022-12-07T12:31:14;6.20;99.90
2861;DHT22;1438;50.922;6.704;2022-12-07T12:33:54;6.20;99.90
2861;DHT22;1438;50.922;6.704;2022-12-07T12:36:46;6.20;99.90
2861;DHT22;1438;50.922;6.704;2022-12-07T12:39:17;6.20;99.90
2861;DHT22;1438;50.922;6.704;2022-12-07T12:46:48;6.30;99.90
2861;DHT22;1438;50.922;6.704;2022-12-07T12:49:33;6.30;99.90
2861;DHT22;1438;50.922;6.704;2022-12-07T12:52:01;6.30;99.90
2861;DHT22;1438;50.922;6.704;2022-12-07T12:55:16;6.40;99.90
2861;DHT22;1438;50.922;6.704;2022-12-07T12:57:48;6.40;99.90
2861;DHT22;1438;50.922;6.704;2022-12-07T13:00:32;6.40;99.90
2861;DHT22;1438;50.922;6.704;2022-12-07T13:02:59;6.40;99.90
2861;DHT22;1438;50.922;6.704;2022-12-07T13:05:30;6.50;99.90
2861;DHT22;1438;50.922;6.704;2022-12-07T13:07:58;6.50;99.90
2861;DHT22;1438;50.922;6.704;2022-12-07T13:13:32;6.50;99.90
2861;DHT22;1438;50.922;6.704;2022-12-07T13:15:54;6.50;99.90
2861;DHT22;1438;50.922;6.704;2022-12-07T13:29:17;6.50;99.90
2861;DHT22;1438;50.922;6.704;2022-12-07T13:31:50;6.40;99.90
2861;DHT22;1438;50.922;6.704;2022-12-07T13:39:35;6.40;99.90
2861;DHT22;1438;50.922;6.704;2022-12-07T13:42:31;6.40;99.90
2861;DHT22;1438;50.922;6.704;2022-12-07T13:44:58;6.30;99.90
2861;DHT22;1438;50.922;6.704;2022-12-07T13:47:41;6.40;99.90
2861;DHT22;1438;50.922;6.704;2022-12-07T13:50:33;6.30;99.90
2861;DHT22;1438;50.922;6.704;2022-12-07T13:53:00;6.20;99.90
2861;DHT22;1438;50.922;6.704;2022-12-07T13:55:27;6.20;99.90
2861;DHT22;1438;50.922;6.704;2022-12-07T13:57:54;6.30;99.90
2861;DHT22;1438;50.922;6.704;2022-12-07T14:00:25;6.30;99.90
2861;DHT22;1438;50.922;6.704;2022-12-07T14:03:04;6.30;99.90
2861;DHT22;1438;50.922;6.704;2022-12-07T14:05:45;6.30;99.90
2861;DHT22;1438;50.922;6.704;2022-12-07T14:10:37;6.30;99.90
2861;DHT22;1438;50.922;6.704;2022-12-07T14:13:30;6.30;99.90
2861;DHT22;1438;50.922;6.704;2022-12-07T14:15:57;6.30;99.90
2861;DHT22;1438;50.922;6.704;2022-12-07T14:18:38;6.30;99.90
2861;DHT22;1438;50.922;6.704;2022-12-07T14:23:37;6.30;99.90
2861;DHT22;1438;50.922;6.704;2022-12-07T14:26:19;6.30;99.90
2861;DHT22;1438;50.922;6.704;2022-12-07T14:28:46;6.30;99.90
2861;DHT22;1438;50.922;6.704;2022-12-07T14:31:17;6.20;99.90
2861;DHT22;1438;50.922;6.704;2022-12-07T14:33:43;6.20;99.90
2861;DHT22;1438;50.922;6.704;2022-12-07T14:36:10;6.10;99.90
2861;DHT22;1438;50.922;6.704;2022-12-07T14:38:36;6.10;99.90
2861;DHT22;1438;50.922;6.704;2022-12-07T14:41:04;6.10;99.90
2861;DHT22;1438;50.922;6.704;2022-12-07T14:43:48;6.10;99.90
2861;DHT22;1438;50.922;6.704;2022-12-07T14:46:14;6.00;99.90
2861;DHT22;1438;50.922;6.704;2022-12-07T14:48:39;6.00;99.90
2861;DHT22;1438;50.922;6.704;2022-12-07T14:51:05;6.00;99.90
2861;DHT22;1438;50.922;6.704;2022-12-07T14:53:35;5.90;99.90
2861;DHT22;1438;50.922;6.704;2022-12-07T14:56:02;5.90;99.90
2861;DHT22;1438;50.922;6.704;2022-12-07T14:58:30;5.90;99.90
2861;DHT22;1438;50.922;6.704;2022-12-07T15:00:56;5.90;99.90
2861;DHT22;1438;50.922;6.704;2022-12-07T15:03:22;5.90;99.90
2861;DHT22;1438;50.922;6.704;2022-12-07T15:05:47;5.90;99.90
2861;DHT22;1438;50.922;6.704;2022-12-07T15:08:13;5.90;99.90
2861;DHT22;1438;50.922;6.704;2022-12-07T15:10:39;5.90;99.90
2861;DHT22;1438;50.922;6.704;2022-12-07T15:13:06;5.90;99.90
2861;DHT22;1438;50.922;6.704;2022-12-07T15:15:51;5.90;99.90
2861;DHT22;1438;50.922;6.704;2022-12-07T15:18:18;5.90;99.90
2861;DHT22;1438;50.922;6.704;2022-12-07T15:20:44;5.80;99.90
2861;DHT22;1438;50.922;6.704;2022-12-07T15:23:10;5.70;99.90
2861;DHT22;1438;50.922;6.704;2022-12-07T15:25:39;5.60;99.90
2861;DHT22;1438;50.922;6.704;2022-12-07T15:28:05;5.50;99.90
2861;DHT22;1438;50.922;6.704;2022-12-07T15:30:30;5.40;99.90
2861;DHT22;1438;50.922;6.704;2022-12-07T15:32:56;5.40;99.90
2861;DHT22;1438;50.922;6.704;2022-12-07T15:35:22;5.30;99.90
2861;DHT22;1438;50.922;6.704;2022-12-07T15:37:47;5.20;99.90
2861;DHT22;1438;50.922;6.704;2022-12-07T15:40:13;5.10;99.90
2861;DHT22;1438;50.922;6.704;2022-12-07T15:42:39;5.00;99.90
2861;DHT22;1438;50.922;6.704;2022-12-07T15:45:06;4.90;99.90
2861;DHT22;1438;50.922;6.704;2022-12-07T15:47:38;4.80;99.90
2861;DHT22;1438;50.922;6.704;2022-12-07T15:50:05;4.70;99.90
2861;DHT22;1438;50.922;6.704;2022-12-07T15:52:31;4.70;99.90
2861;DHT22;1438;50.922;6.704;2022-12-07T15:54:57;4.70;99.90
2861;DHT22;1438;50.922;6.704;2022-12-07T15:57:25;4.60;99.90
2861;DHT22;1438;50.922;6.704;2022-12-07T15:59:51;4.50;99.90
2861;DHT22;1438;50.922;6.704;2022-12-07T16:02:17;4.50;99.90
2861;DHT22;1438;50.922;6.704;2022-12-07T16:04:42;4.50;99.90
2861;DHT22;1438;50.922;6.704;2022-12-07T16:07:08;4.50;99.90
2861;DHT22;1438;50.922;6.704;2022-12-07T16:09:34;4.40;99.90
2861;DHT22;1438;50.922;6.704;2022-12-07T16:11:59;4.30;99.90
2861;DHT22;1438;50.922;6.704;2022-12-07T16:14:25;4.30;99.90
2861;DHT22;1438;50.922;6.704;2022-12-07T16:16:50;4.30;99.90
2861;DHT22;1438;50.922;6.704;2022-12-07T16:19:16;4.30;99.90
2861;DHT22;1438;50.922;6.704;2022-12-07T16:21:42;4.20;99.90
2861;DHT22;1438;50.922;6.704;2022-12-07T16:24:07;4.20;99.90
2861;DHT22;1438;50.922;6.704;2022-12-07T16:26:33;4.20;99.90
2861;DHT22;1438;50.922;6.704;2022-12-07T16:28:59;4.20;99.90
2861;DHT22;1438;50.922;6.704;2022-12-07T16:31:27;4.20;99.90
2861;DHT22;1438;50.922;6.704;2022-12-07T16:33:54;4.20;99.90
2861;DHT22;1438;50.922;6.704;2022-12-07T16:36:20;4.20;99.90
2861;DHT22;1438;50.922;6.704;2022-12-07T16:38:48;4.20;99.90
2861;DHT22;1438;50.922;6.704;2022-12-07T16:41:14;4.20;99.90
2861;DHT22;1438;50.922;6.704;2022-12-07T16:43:40;4.20;99.90
2861;DHT22;1438;50.922;6.704;2022-12-07T16:46:05;4.20;99.90
2861;DHT22;1438;50.922;6.704;2022-12-07T16:48:31;4.20;99.90
2861;DHT22;1438;50.922;6.704;2022-12-07T16:51:03;4.10;99.90
2861;DHT22;1438;50.922;6.704;2022-12-07T16:53:38;4.10;99.90
2861;DHT22;1438;50.922;6.704;2022-12-07T16:56:05;4.20;99.90
2861;DHT22;1438;50.922;6.704;2022-12-07T16:58:34;4.20;99.90
2861;DHT22;1438;50.922;6.704;2022-12-07T17:01:11;4.20;99.90
2861;DHT22;1438;50.922;6.704;2022-12-07T17:03:37;4.20;99.90
2861;DHT22;1438;50.922;6.704;2022-12-07T17:06:03;4.10;99.90
2861;DHT22;1438;50.922;6.704;2022-12-07T17:08:29;4.10;99.90
2861;DHT22;1438;50.922;6.704;2022-12-07T17:10:54;4.20;99.90
2861;DHT22;1438;50.922;6.704;2022-12-07T17:13:20;4.20;99.90
2861;DHT22;1438;50.922;6.704;2022-12-07T17:16:05;4.20;99.90
2861;DHT22;1438;50.922;6.704;2022-12-07T17:18:33;4.20;99.90
2861;DHT22;1438;50.922;6.704;2022-12-07T17:21:04;4.30;99.90
2861;DHT22;1438;50.922;6.704;2022-12-07T17:23:31;4.30;99.90
2861;DHT22;1438;50.922;6.704;2022-12-07T17:26:04;4.30;99.90
2861;DHT22;1438;50.922;6.704;2022-12-07T17:28:30;4.30;99.90
2861;DHT22;1438;50.922;6.704;2022-12-07T17:30:56;4.40;99.90
2861;DHT22;1438;50.922;6.704;2022-12-07T17:33:21;4.30;99.90
2861;DHT22;1438;50.922;6.704;2022-12-07T17:35:47;4.40;99.90
2861;DHT22;1438;50.922;6.704;2022-12-07T17:38:13;4.40;99.90
2861;DHT22;1438;50.922;6.704;2022-12-07T17:40:38;4.50;99.90
2861;DHT22;1438;50.922;6.704;2022-12-07T17:43:04;4.50;99.90
2861;DHT22;1438;50.922;6.704;2022-12-07T17:45:30;4.40;99.90
2861;DHT22;1438;50.922;6.704;2022-12-07T17:47:56;4.50;99.90
2861;DHT22;1438;50.922;6.704;2022-12-07T17:50:21;4.50;99.90
2861;DHT22;1438;50.922;6.704;2022-12-07T17:53:12;4.50;99.90
2861;DHT22;1438;50.922;6.704;2022-12-07T17:55:39;4.50;99.90
2861;DHT22;1438;50.922;6.704;2022-12-07T17:58:05;4.50;99.90
2861;DHT22;1438;50.922;6.704;2022-12-07T18:00:31;4.50;99.90
2861;DHT22;1438;50.922;6.704;2022-12-07T18:03:05;4.50;99.90
2861;DHT22;1438;50.922;6.704;2022-12-07T18:05:35;4.50;99.90
2861;DHT22;1438;50.922;6.704;2022-12-07T18:08:00;4.50;99.90
2861;DHT22;1438;50.922;6.704;2022-12-07T18:10:26;4.60;99.90
2861;DHT22;1438;50.922;6.704;2022-12-07T18:12:52;4.50;99.90
2861;DHT22;1438;50.922;6.704;2022-12-07T18:15:38;4.50;99.90
2861;DHT22;1438;50.922;6.704;2022-12-07T18:18:03;4.60;99.90
2861;DHT22;1438;50.922;6.704;2022-12-07T18:20:29;4.60;99.90
2861;DHT22;1438;50.922;6.704;2022-12-07T18:22:55;4.60;99.90
2861;DHT22;1438;50.922;6.704;2022-12-07T18:25:20;4.60;99.90
2861;DHT22;1438;50.922;6.704;2022-12-07T18:27:46;4.60;99.90
2861;DHT22;1438;50.922;6.704;2022-12-07T18:30:12;4.60;99.90
2861;DHT22;1438;50.922;6.704;2022-12-07T18:32:37;4.50;99.90
2861;DHT22;1438;50.922;6.704;2022-12-07T18:35:03;4.50;99.90